createdAt,value
2023-03-05T00:02:06.935Z,15.80
2023-03-05T00:04:33.663Z,12.88
2023-03-05T00:07:00.424Z,15.80
2023-03-05T00:09:26.965Z,18.70
2023-03-05T00:11:53.376Z,13.77
2023-03-05T00:14:20.309Z,16.10
2023-03-05T00:16:47.001Z,14.40
2023-03-05T00:19:13.566Z,17.90
2023-03-05T00:21:41.767Z,16.80
2023-03-05T00:24:15.407Z,16.48
2023-03-05T00:26:42.035Z,25.27
2023-03-05T00:29:09.788Z,13.25
2023-03-05T00:31:37.213Z,16.60
2023-03-05T00:34:15.274Z,22.52
2023-03-05T00:36:44.158Z,16.50
2023-03-05T00:39:11.745Z,18.67
2023-03-05T00:41:38.296Z,14.40
2023-03-05T00:44:05.176Z,25.17
2023-03-05T00:46:32.089Z,18.15
2023-03-05T00:48:58.590Z,22.05
2023-03-05T00:51:26.517Z,27.17
2023-03-05T00:53:53.439Z,20.30
2023-03-05T00:56:20.117Z,15.68
2023-03-05T00:58:46.660Z,12.60
2023-03-05T01:01:14.484Z,17.75
2023-03-05T01:03:41.572Z,15.55
2023-03-05T01:06:11.654Z,20.23
2023-03-05T01:08:38.958Z,18.00
2023-03-05T01:11:07.383Z,14.68
2023-03-05T01:13:33.863Z,13.15
2023-03-05T01:16:01.682Z,16.15
2023-03-05T01:18:28.267Z,14.38
2023-03-05T01:20:54.878Z,15.73
2023-03-05T01:23:21.818Z,18.92
2023-03-05T01:26:00.052Z,18.00
2023-03-05T01:28:26.804Z,11.85
2023-03-05T01:30:53.667Z,18.77
2023-03-05T01:33:20.165Z,15.23
2023-03-05T01:35:50.199Z,18.73
2023-03-05T01:38:17.581Z,15.85
2023-03-05T01:40:44.602Z,18.17
2023-03-05T01:43:11.243Z,23.55
2023-03-05T01:45:38.844Z,14.23
2023-03-05T01:48:05.506Z,9.63
2023-03-05T01:50:33.691Z,17.90
2023-03-05T01:53:06.459Z,17.00
2023-03-05T01:55:37.139Z,16.52
2023-03-05T01:58:08.230Z,17.55
2023-03-05T02:00:39.525Z,10.07
2023-03-05T02:03:09.402Z,12.95
2023-03-05T02:05:38.140Z,13.05
2023-03-05T02:08:08.576Z,9.88
2023-03-05T02:10:39.344Z,11.93
2023-03-05T02:13:09.775Z,10.15
2023-03-05T02:15:38.054Z,16.13
2023-03-05T02:18:05.994Z,17.67
2023-03-05T02:20:56.252Z,10.32
2023-03-05T02:23:25.489Z,11.55
2023-03-05T02:25:52.952Z,21.55
2023-03-05T02:28:28.479Z,15.38
2023-03-05T02:30:56.802Z,19.02
2023-03-05T02:33:23.377Z,13.70
2023-03-05T02:35:50.280Z,16.75
2023-03-05T02:38:19.175Z,17.10
2023-03-05T02:40:46.202Z,18.83
2023-03-05T02:43:14.542Z,23.17
2023-03-05T02:45:40.958Z,27.38
2023-03-05T02:48:07.797Z,16.38
2023-03-05T02:50:35.062Z,21.20
2023-03-05T02:53:01.940Z,17.75
2023-03-05T02:55:28.549Z,20.75
2023-03-05T02:57:55.371Z,18.02
2023-03-05T03:00:22.233Z,16.92
2023-03-05T03:02:48.738Z,17.42
2023-03-05T03:05:15.504Z,15.68
2023-03-05T03:07:42.414Z,20.10
2023-03-05T03:10:09.563Z,17.73
2023-03-05T03:12:43.964Z,15.70
2023-03-05T03:15:12.394Z,18.13
2023-03-05T03:17:39.653Z,21.30
2023-03-05T03:20:11.666Z,10.77
2023-03-05T03:22:38.303Z,13.93
2023-03-05T03:25:05.502Z,11.60
2023-03-05T03:27:32.079Z,18.05
2023-03-05T03:30:04.981Z,15.40
2023-03-05T03:32:32.564Z,11.55
2023-03-05T03:34:59.580Z,23.33
2023-03-05T03:37:26.512Z,14.07
2023-03-05T03:39:53.375Z,17.98
2023-03-05T03:42:21.709Z,17.23
2023-03-05T03:44:48.653Z,12.85
2023-03-05T03:47:15.356Z,13.50
2023-03-05T03:49:42.564Z,18.75
2023-03-05T03:52:09.051Z,13.45
2023-03-05T03:54:36.119Z,14.75
2023-03-05T03:57:05.544Z,11.85
2023-03-05T03:59:32.371Z,16.33
2023-03-05T04:01:59.141Z,15.77
2023-03-05T04:04:26.908Z,16.25
2023-03-05T04:06:53.375Z,15.45
2023-03-05T04:09:20.128Z,9.60
2023-03-05T04:11:46.627Z,15.60
2023-03-05T04:14:13.023Z,17.98
2023-03-05T04:16:39.495Z,12.55
2023-03-05T04:19:05.946Z,16.25
2023-03-05T04:21:33.587Z,14.05
2023-03-05T04:23:59.987Z,11.80
2023-03-05T04:26:26.577Z,12.63
2023-03-05T04:28:52.994Z,9.25
2023-03-05T04:31:20.978Z,13.50
2023-03-05T04:33:47.503Z,13.77
2023-03-05T04:36:14.293Z,13.50
2023-03-05T04:38:40.976Z,10.73
2023-03-05T04:41:07.419Z,9.48
2023-03-05T04:43:33.876Z,15.15
2023-03-05T04:46:00.605Z,7.97
2023-03-05T04:48:27.114Z,8.70
2023-03-05T04:50:53.647Z,16.88
2023-03-05T04:53:20.053Z,9.63
2023-03-05T04:55:46.627Z,9.52
2023-03-05T04:58:13.061Z,15.00
2023-03-05T05:00:39.537Z,13.00
2023-03-05T05:03:06.461Z,11.73
2023-03-05T05:05:33.164Z,15.20
2023-03-05T05:07:59.607Z,11.80
2023-03-05T05:10:27.003Z,16.40
2023-03-05T05:12:53.745Z,10.57
2023-03-05T05:15:21.444Z,10.95
2023-03-05T05:17:48.140Z,11.25
2023-03-05T05:20:16.653Z,7.10
2023-03-05T05:22:44.174Z,15.00
2023-03-05T05:25:11.291Z,12.23
2023-03-05T05:27:40.004Z,7.28
2023-03-05T05:30:27.072Z,10.48
2023-03-05T05:32:53.474Z,13.30
2023-03-05T05:35:21.228Z,11.13
2023-03-05T05:37:47.767Z,12.13
2023-03-05T05:40:14.562Z,9.27
2023-03-05T05:42:41.629Z,12.18
2023-03-05T05:45:09.010Z,11.60
2023-03-05T05:47:41.695Z,10.98
2023-03-05T05:50:09.006Z,14.32
2023-03-05T05:52:35.392Z,9.75
2023-03-05T05:55:01.928Z,11.15
2023-03-05T05:57:28.649Z,8.68
2023-03-05T05:59:55.205Z,7.28
2023-03-05T06:02:22.232Z,8.75
2023-03-05T06:04:49.188Z,10.50
2023-03-05T06:07:16.043Z,10.75
2023-03-05T06:09:43.683Z,9.38
2023-03-05T06:12:11.204Z,8.18
2023-03-05T06:14:37.787Z,13.15
2023-03-05T06:17:04.520Z,4.82
2023-03-05T06:19:32.630Z,13.88
2023-03-05T06:21:59.142Z,7.28
2023-03-05T06:24:25.686Z,10.93
2023-03-05T06:26:52.056Z,6.60
2023-03-05T06:29:18.628Z,11.05
2023-03-05T06:31:45.373Z,8.35
2023-03-05T06:34:11.873Z,9.57
2023-03-05T06:36:39.508Z,5.88
2023-03-05T06:39:06.547Z,6.68
2023-03-05T06:41:33.251Z,8.45
2023-03-05T06:44:02.363Z,8.18
2023-03-05T06:46:33.967Z,7.45
2023-03-05T06:49:02.291Z,10.63
2023-03-05T06:51:31.600Z,4.97
2023-03-05T06:54:18.025Z,8.77
2023-03-05T06:56:46.501Z,7.05
2023-03-05T06:59:14.989Z,6.57
2023-03-05T07:01:42.673Z,8.00
2023-03-05T07:04:11.147Z,6.97
2023-03-05T07:06:42.107Z,6.10
2023-03-05T07:09:13.383Z,10.07
2023-03-05T07:11:39.769Z,13.18
2023-03-05T07:14:06.799Z,9.88
2023-03-05T07:16:34.408Z,9.48
2023-03-05T07:19:03.688Z,7.85
2023-03-05T07:21:34.035Z,5.40
2023-03-05T07:24:04.648Z,8.07
2023-03-05T07:26:33.713Z,13.38
2023-03-05T07:29:00.946Z,5.82
2023-03-05T07:31:31.128Z,7.60
2023-03-05T07:33:59.528Z,9.75
2023-03-05T07:36:27.084Z,15.18
2023-03-05T07:38:53.866Z,7.93
2023-03-05T07:41:21.951Z,5.63
2023-03-05T07:43:52.636Z,9.60
2023-03-05T07:46:21.595Z,8.52
2023-03-05T07:48:48.199Z,7.80
2023-03-05T07:51:18.308Z,10.98
2023-03-05T07:53:46.111Z,7.05
2023-03-05T07:56:13.144Z,9.77
2023-03-05T07:58:39.785Z,9.40
2023-03-05T08:01:13.953Z,6.03
2023-03-05T08:03:41.279Z,9.43
2023-03-05T08:06:08.379Z,6.75
2023-03-05T08:08:36.123Z,9.60
2023-03-05T08:11:09.959Z,7.85
2023-03-05T08:13:36.803Z,8.63
2023-03-05T08:16:08.932Z,8.18
2023-03-05T08:18:36.076Z,18.35
2023-03-05T08:21:03.382Z,13.20
2023-03-05T08:23:30.559Z,12.25
2023-03-05T08:25:57.299Z,13.65
2023-03-05T08:28:23.911Z,11.90
2023-03-05T08:30:50.672Z,14.77
2023-03-05T08:33:18.002Z,9.88
2023-03-05T08:35:45.179Z,14.20
2023-03-05T08:38:11.782Z,12.57
2023-03-05T08:40:38.254Z,7.40
2023-03-05T08:43:05.797Z,15.70
2023-03-05T08:45:32.291Z,11.90
2023-03-05T08:47:59.053Z,16.60
2023-03-05T08:50:25.953Z,11.90
2023-03-05T08:52:52.927Z,12.77
2023-03-05T08:55:19.327Z,9.25
2023-03-05T08:57:46.089Z,17.70
2023-03-05T09:00:13.798Z,10.07
2023-03-05T09:02:40.512Z,16.60
2023-03-05T09:05:07.566Z,9.98
2023-03-05T09:07:34.567Z,10.27
2023-03-05T09:10:00.992Z,12.48
2023-03-05T09:12:27.884Z,11.85
2023-03-05T09:14:55.363Z,8.60
2023-03-05T09:17:23.042Z,7.50
2023-03-05T09:19:50.289Z,9.77
2023-03-05T09:22:17.224Z,12.65
2023-03-05T09:24:44.046Z,4.45
2023-03-05T09:27:10.772Z,10.75
2023-03-05T09:29:37.725Z,7.70
2023-03-05T09:32:04.281Z,6.82
2023-03-05T09:34:31.042Z,10.40
2023-03-05T09:36:57.429Z,6.47
2023-03-05T09:39:24.217Z,11.43
2023-03-05T09:42:02.857Z,10.85
2023-03-05T09:44:35.432Z,8.63
2023-03-05T09:47:08.653Z,9.13
2023-03-05T09:49:45.405Z,11.02
2023-03-05T09:52:20.672Z,11.85
2023-03-05T09:57:24.327Z,11.15
2023-03-05T09:59:57.646Z,9.85
2023-03-05T10:02:35.334Z,10.02
2023-03-05T10:05:04.934Z,10.73
2023-03-05T10:07:36.494Z,11.82
2023-03-05T10:10:14.215Z,9.88
2023-03-05T10:12:52.893Z,15.05
2023-03-05T10:15:38.254Z,8.95
2023-03-05T10:18:09.491Z,9.20
2023-03-05T10:20:56.469Z,12.82
2023-03-05T10:23:36.267Z,13.52
2023-03-05T10:26:16.022Z,8.55
2023-03-05T10:29:11.789Z,10.05
2023-03-05T10:31:50.371Z,11.07
2023-03-05T10:34:33.998Z,13.93
2023-03-05T10:37:09.932Z,7.15
2023-03-05T10:39:56.963Z,10.55
2023-03-05T10:42:55.521Z,12.40
2023-03-05T10:45:28.588Z,6.85
2023-03-05T10:48:16.950Z,10.18
2023-03-05T10:50:48.891Z,17.48
2023-03-05T10:53:27.383Z,15.25
2023-03-05T10:55:57.810Z,11.60
2023-03-05T10:58:25.177Z,8.77
2023-03-05T11:01:22.624Z,10.07
2023-03-05T11:03:51.811Z,13.02
2023-03-05T11:06:42.705Z,6.22
2023-03-05T11:09:20.036Z,11.18
2023-03-05T11:12:21.569Z,11.95
2023-03-05T11:15:14.398Z,12.35
2023-03-05T11:17:45.229Z,12.60
2023-03-05T11:20:26.882Z,14.80
2023-03-05T11:23:05.371Z,8.93
2023-03-05T11:25:34.032Z,11.25
2023-03-05T11:28:03.606Z,9.70
2023-03-05T11:30:37.260Z,14.52
2023-03-05T11:33:11.719Z,12.00
2023-03-05T11:35:40.175Z,9.82
2023-03-05T11:38:16.980Z,7.93
2023-03-05T11:40:43.718Z,18.80
2023-03-05T11:43:17.493Z,14.15
2023-03-05T11:45:45.790Z,13.93
2023-03-05T11:48:18.403Z,12.25
2023-03-05T11:50:46.891Z,10.27
2023-03-05T11:53:20.662Z,15.82
2023-03-05T11:55:54.714Z,9.30
2023-03-05T11:58:43.530Z,11.15
2023-03-05T12:01:22.623Z,9.60
2023-03-05T12:03:51.583Z,11.32
2023-03-05T12:06:40.834Z,9.90
2023-03-05T12:09:20.255Z,15.27
2023-03-05T12:11:50.294Z,7.38
2023-03-05T12:14:32.034Z,11.95
2023-03-05T12:17:18.953Z,12.77
2023-03-05T12:19:58.262Z,12.05
2023-03-05T12:22:33.526Z,10.77
2023-03-05T12:25:27.184Z,13.38
2023-03-05T12:27:53.944Z,12.57
2023-03-05T12:30:35.810Z,14.15
2023-03-05T12:33:04.813Z,20.13
2023-03-05T12:35:39.739Z,14.52
2023-03-05T12:40:53.374Z,12.70
2023-03-05T12:43:32.889Z,13.27
2023-03-05T12:46:42.707Z,16.17
2023-03-05T12:49:18.115Z,18.30
2023-03-05T12:51:47.226Z,16.80
2023-03-05T12:54:29.837Z,18.42
2023-03-05T12:57:06.179Z,14.25
2023-03-05T12:59:42.530Z,17.50
2023-03-05T13:02:37.365Z,14.93
2023-03-05T13:05:27.471Z,13.75
2023-03-05T13:08:15.779Z,13.35
2023-03-05T13:10:43.749Z,13.45
2023-03-05T13:13:15.849Z,14.73
2023-03-05T13:15:47.078Z,14.45
2023-03-05T13:18:40.758Z,19.48
2023-03-05T13:21:14.410Z,12.85
2023-03-05T13:24:15.036Z,20.70
2023-03-05T13:26:41.486Z,13.27
2023-03-05T13:29:30.600Z,16.88
2023-03-05T13:32:31.243Z,15.93
2023-03-05T13:35:00.459Z,18.17
2023-03-05T13:37:37.891Z,18.90
2023-03-05T13:40:29.332Z,17.80
2023-03-05T13:43:09.790Z,15.88
2023-03-05T13:45:36.267Z,20.27
2023-03-05T13:48:06.944Z,22.58
2023-03-05T13:50:33.279Z,21.27
2023-03-05T13:53:20.615Z,18.08
2023-03-05T13:55:48.950Z,18.10
2023-03-05T13:58:47.404Z,19.13
2023-03-05T14:01:31.098Z,19.52
2023-03-05T14:04:16.617Z,20.30
2023-03-05T14:09:25.538Z,22.92
2023-03-05T14:12:00.103Z,20.35
2023-03-05T14:14:30.654Z,17.33
2023-03-05T14:17:25.871Z,23.83
2023-03-05T14:19:52.382Z,20.85
2023-03-05T14:22:38.885Z,20.00
2023-03-05T14:25:07.232Z,14.52
2023-03-05T14:27:36.287Z,14.55
2023-03-05T14:30:05.062Z,17.92
2023-03-05T14:32:34.708Z,15.65
2023-03-05T14:35:04.197Z,19.45
2023-03-05T14:37:45.267Z,17.75
2023-03-05T14:40:12.142Z,15.00
2023-03-05T14:42:54.836Z,16.83
2023-03-05T14:45:22.820Z,15.30
2023-03-05T14:47:54.288Z,18.98
2023-03-05T14:50:27.658Z,13.90
2023-03-05T14:53:01.304Z,16.45
2023-03-05T14:55:31.693Z,17.33
2023-03-05T14:58:04.658Z,19.58
2023-03-05T15:00:31.772Z,19.92
2023-03-05T15:02:58.835Z,16.27
2023-03-05T15:05:25.532Z,19.13
2023-03-05T15:07:52.343Z,16.33
2023-03-05T15:10:21.620Z,15.73
2023-03-05T15:12:50.284Z,18.23
2023-03-05T15:15:18.372Z,16.65
2023-03-05T15:17:52.068Z,15.55
2023-03-05T15:20:25.787Z,16.77
2023-03-05T15:22:53.321Z,15.32
2023-03-05T15:25:21.432Z,14.32
2023-03-05T15:27:48.983Z,17.45
2023-03-05T15:30:28.281Z,16.98
2023-03-05T15:32:57.044Z,15.43
2023-03-05T15:35:25.184Z,16.92
2023-03-05T15:37:53.425Z,14.00
2023-03-05T15:40:21.598Z,19.13
2023-03-05T15:42:48.416Z,17.10
2023-03-05T15:45:15.552Z,17.15
2023-03-05T15:47:42.086Z,13.40
2023-03-05T15:50:09.539Z,17.02
2023-03-05T15:52:35.992Z,17.05
2023-03-05T15:55:02.936Z,14.80
2023-03-05T15:57:29.659Z,17.27
2023-03-05T15:59:56.220Z,13.95
2023-03-05T16:02:25.146Z,16.08
2023-03-05T16:04:51.529Z,15.25
2023-03-05T16:07:18.237Z,17.55
2023-03-05T16:09:49.181Z,12.73
2023-03-05T16:12:20.114Z,19.80
2023-03-05T16:14:47.448Z,12.88
2023-03-05T16:17:15.601Z,11.35
2023-03-05T16:19:46.667Z,12.75
2023-03-05T16:22:13.073Z,17.02
2023-03-05T16:24:39.797Z,14.85
2023-03-05T16:27:06.284Z,12.23
2023-03-05T16:29:33.968Z,14.40
2023-03-05T16:32:02.934Z,15.65
2023-03-05T16:34:30.329Z,12.63
2023-03-05T16:36:59.086Z,11.88
2023-03-05T16:39:25.521Z,14.70
2023-03-05T16:41:52.582Z,14.82
2023-03-05T16:44:19.725Z,14.90
2023-03-05T16:46:50.343Z,13.20
2023-03-05T16:49:16.889Z,15.98
2023-03-05T16:51:43.293Z,15.18
2023-03-05T16:54:10.291Z,12.00
2023-03-05T16:56:37.163Z,14.82
2023-03-05T16:59:04.212Z,15.20
2023-03-05T17:01:30.680Z,12.75
2023-03-05T17:03:59.098Z,15.85
2023-03-05T17:06:28.986Z,9.10
2023-03-05T17:08:55.882Z,9.20
2023-03-05T17:11:23.998Z,10.88
2023-03-05T17:13:50.371Z,15.77
2023-03-05T17:16:19.693Z,10.98
2023-03-05T17:18:46.488Z,13.23
2023-03-05T17:21:13.962Z,14.07
2023-03-05T17:23:41.001Z,15.70
2023-03-05T17:26:13.560Z,10.85
2023-03-05T17:28:41.228Z,10.23
2023-03-05T17:31:07.855Z,12.30
2023-03-05T17:33:36.069Z,12.15
2023-03-05T17:36:03.783Z,16.40
2023-03-05T17:38:30.883Z,16.35
2023-03-05T17:40:57.405Z,16.88
2023-03-05T17:43:24.205Z,16.45
2023-03-05T17:45:50.765Z,15.25
2023-03-05T17:48:17.337Z,10.93
2023-03-05T17:50:45.373Z,13.75
2023-03-05T17:53:12.396Z,12.73
2023-03-05T17:55:39.647Z,12.82
2023-03-05T17:58:06.354Z,14.05
2023-03-05T18:00:33.143Z,15.25
2023-03-05T18:03:00.131Z,13.88
2023-03-05T18:05:27.951Z,12.98
2023-03-05T18:07:55.952Z,14.25
2023-03-05T18:10:24.883Z,9.95
2023-03-05T18:12:52.067Z,14.32
2023-03-05T18:15:21.006Z,16.13
2023-03-05T18:17:47.508Z,12.13
2023-03-05T18:20:34.784Z,12.48
2023-03-05T18:23:02.269Z,13.27
2023-03-05T18:25:31.372Z,15.80
2023-03-05T18:28:09.764Z,13.25
2023-03-05T18:30:37.728Z,16.77
2023-03-05T18:33:05.851Z,21.73
2023-03-05T18:35:33.502Z,23.58
2023-03-05T18:38:00.392Z,17.88
2023-03-05T18:40:29.781Z,16.90
2023-03-05T18:42:59.733Z,18.15
2023-03-05T18:45:26.273Z,22.02
2023-03-05T18:47:54.197Z,19.48
2023-03-05T18:50:23.708Z,24.23
2023-03-05T18:52:50.834Z,19.73
2023-03-05T18:55:19.988Z,22.90
2023-03-05T18:57:46.924Z,19.17
2023-03-05T19:00:15.805Z,21.23
2023-03-05T19:02:42.296Z,20.60
2023-03-05T19:05:09.465Z,21.33
2023-03-05T19:07:37.909Z,19.73
2023-03-05T19:10:09.783Z,20.30
2023-03-05T19:12:45.414Z,18.23
2023-03-05T19:15:13.659Z,21.50
2023-03-05T19:17:40.209Z,19.10
2023-03-05T19:20:07.767Z,20.48
2023-03-05T19:22:34.792Z,20.40
2023-03-05T19:25:01.714Z,20.95
2023-03-05T19:27:29.010Z,20.40
2023-03-05T19:29:55.649Z,23.00
2023-03-05T19:32:23.506Z,21.13
2023-03-05T19:34:50.614Z,20.80
2023-03-05T19:37:18.106Z,22.02
2023-03-05T19:39:44.668Z,19.35
2023-03-05T19:42:12.266Z,21.40
2023-03-05T19:44:38.988Z,20.88
2023-03-05T19:47:05.935Z,19.25
2023-03-05T19:49:32.742Z,21.15
2023-03-05T19:51:59.272Z,20.80
2023-03-05T19:54:26.038Z,16.92
2023-03-05T19:56:54.860Z,18.63
2023-03-05T19:59:22.172Z,18.27
2023-03-05T20:01:49.376Z,20.55
2023-03-05T20:04:18.947Z,20.58
2023-03-05T20:06:45.864Z,21.40
2023-03-05T20:09:13.091Z,21.20
2023-03-05T20:11:40.522Z,20.20
2023-03-05T20:14:07.861Z,21.33
2023-03-05T20:16:40.131Z,21.45
2023-03-05T20:19:08.177Z,21.95
2023-03-05T20:21:38.758Z,17.05
2023-03-05T20:24:09.951Z,20.35
2023-03-05T20:26:40.402Z,19.38
2023-03-05T20:29:07.294Z,26.77
2023-03-05T20:31:36.815Z,18.50
2023-03-05T20:34:09.068Z,21.58
2023-03-05T20:36:35.672Z,24.52
2023-03-05T20:39:03.546Z,24.15
2023-03-05T20:41:30.401Z,23.38
2023-03-05T20:43:57.288Z,23.65
2023-03-05T20:46:26.778Z,25.10
2023-03-05T20:48:57.498Z,23.42
2023-03-05T20:51:27.289Z,22.80
2023-03-05T20:53:58.510Z,23.83
2023-03-05T20:56:27.799Z,21.52
2023-03-05T20:58:58.352Z,20.05
2023-03-05T21:01:25.790Z,22.80
2023-03-05T21:03:56.998Z,19.52
2023-03-05T21:06:24.356Z,20.85
2023-03-05T21:08:50.957Z,20.90
2023-03-05T21:11:17.374Z,24.70
2023-03-05T21:13:44.288Z,19.88
2023-03-05T21:16:15.472Z,21.55
2023-03-05T21:18:42.016Z,25.15
2023-03-05T21:21:08.528Z,26.80
2023-03-05T21:23:35.433Z,23.35
2023-03-05T21:26:04.401Z,22.17
2023-03-05T21:28:31.773Z,19.90
2023-03-05T21:30:58.909Z,21.75
2023-03-05T21:33:28.124Z,18.90
2023-03-05T21:35:57.861Z,21.00
2023-03-05T21:38:25.675Z,22.15
2023-03-05T21:40:53.767Z,19.92
2023-03-05T21:43:23.070Z,20.98
2023-03-05T21:45:54.586Z,21.40
2023-03-05T21:48:22.424Z,18.27
2023-03-05T21:50:50.049Z,21.73
2023-03-05T21:53:18.502Z,22.13
2023-03-05T21:56:03.191Z,19.00
2023-03-05T21:58:31.995Z,18.85
2023-03-05T22:00:59.281Z,17.08
2023-03-05T22:03:27.055Z,20.60
2023-03-05T22:05:54.284Z,22.48
2023-03-05T22:08:22.076Z,20.85
2023-03-05T22:10:49.186Z,24.80
2023-03-05T22:13:17.698Z,28.98
2023-03-05T22:15:49.633Z,23.80
2023-03-05T22:18:19.332Z,22.02
2023-03-05T22:20:46.560Z,19.75
2023-03-05T22:23:13.054Z,24.45
2023-03-05T22:25:39.583Z,23.13
2023-03-05T22:28:06.499Z,26.85
2023-03-05T22:30:33.278Z,22.85
2023-03-05T22:33:01.782Z,22.67
2023-03-05T22:35:28.949Z,21.67
2023-03-05T22:37:55.766Z,25.63
2023-03-05T22:40:23.268Z,27.70
2023-03-05T22:42:49.822Z,24.67
2023-03-05T22:45:18.271Z,25.88
2023-03-05T22:47:51.328Z,26.67
2023-03-05T22:50:18.065Z,28.83
2023-03-05T22:52:44.554Z,24.52
2023-03-05T22:55:12.932Z,25.00
2023-03-05T22:57:39.732Z,26.90
2023-03-05T23:00:09.181Z,27.58
2023-03-05T23:02:35.829Z,27.42
2023-03-05T23:05:03.692Z,23.45
2023-03-05T23:07:33.525Z,26.88
2023-03-05T23:10:10.623Z,21.88
2023-03-05T23:12:41.055Z,24.10
2023-03-05T23:15:10.754Z,28.83
2023-03-05T23:17:37.806Z,27.08
2023-03-05T23:20:08.332Z,26.60
2023-03-05T23:22:38.353Z,30.67
2023-03-05T23:25:05.675Z,26.13
2023-03-05T23:27:32.213Z,26.42
2023-03-05T23:30:25.410Z,28.80
2023-03-05T23:32:54.196Z,28.60
2023-03-05T23:35:24.990Z,29.80
2023-03-05T23:37:53.299Z,28.23
2023-03-05T23:40:22.523Z,29.52
2023-03-05T23:42:49.823Z,28.75
2023-03-05T23:45:18.900Z,27.73
2023-03-05T23:47:46.043Z,28.15
2023-03-05T23:50:18.901Z,32.88
2023-03-05T23:52:46.219Z,30.90
2023-03-05T23:55:25.093Z,28.55
2023-03-05T23:57:52.169Z,27.05
